KIAH/IAH METAR and TAF weather

Enter ICAO airport designator
Station Type Date Time Source
KIAH METAR 2019/06/19 01:53 UTC NOAA

KIAH 190153Z 15004KT 10SM FEW044 SCT065 BKN250 29/26 A2984 RMK AO2 SLP104 T02940261


Station Type Date Time Source
KIAH Decoded METAR 2019/06/19 01:53 UTC NOAA

HOUSTON INTERCONTINENTAL, TX, United States (KIAH) 30-00N 095-22W 36M
Jun 18, 2019 - 09:53 PM EDT / 2019.06.19 0153 UTC
Wind: from the SSE (150 degrees) at 5 MPH (4 KT):0
Visibility: 10 mile(s):0
Sky conditions: mostly cloudy
Temperature: 84.9 F (29.4 C)
Dew Point: 79.0 F (26.1 C)
Relative Humidity: 82%
Pressure (altimeter): 29.84 in. Hg (1010 hPa)
ob: KIAH 190153Z 15004KT 10SM FEW044 SCT065 BKN250 29/26 A2984 RMK AO2 SLP104 T02940261
cycle: 2

Station Type Date Time Source
KIAH TAF 2019/06/18 21:09 UTC NOAA

TAF
AMD KIAH 182100Z 1821/1924 25009KT P6SM VCSH SCT045
FM182300 14007KT P6SM SCT060
FM191100 VRB04KT P6SM SCT025
FM191500 21010KT P6SM SCT035 BKN150
FM192000 18010KT P6SM FEW050 SCT250

Example: see airport list